sensor_id;sensor_type;location;lat;lon;timestamp;temperature;humidity
14962;DHT22;56489;53.166;10.864;2022-12-18T00:02:10;-6.80;99.90
14962;DHT22;56489;53.166;10.864;2022-12-18T00:04:37;-6.80;99.90
14962;DHT22;56489;53.166;10.864;2022-12-18T00:07:03;-6.80;99.90
14962;DHT22;56489;53.166;10.864;2022-12-18T00:09:30;-6.90;99.90
14962;DHT22;56489;53.166;10.864;2022-12-18T00:12:06;-6.90;99.90
14962;DHT22;56489;53.166;10.864;2022-12-18T00:14:41;-6.90;99.90
14962;DHT22;56489;53.166;10.864;2022-12-18T00:17:08;-6.90;99.90
14962;DHT22;56489;53.166;10.864;2022-12-18T00:19:35;-6.90;99.90
14962;DHT22;56489;53.166;10.864;2022-12-18T00:22:01;-6.90;99.90
14962;DHT22;56489;53.166;10.864;2022-12-18T00:24:29;-7.00;99.90
14962;DHT22;56489;53.166;10.864;2022-12-18T00:26:55;-7.00;99.90
14962;DHT22;56489;53.166;10.864;2022-12-18T00:29:22;-7.00;99.90
14962;DHT22;56489;53.166;10.864;2022-12-18T00:31:49;-7.00;99.90
14962;DHT22;56489;53.166;10.864;2022-12-18T00:34:15;-7.00;99.90
14962;DHT22;56489;53.166;10.864;2022-12-18T00:36:42;-7.00;99.90
14962;DHT22;56489;53.166;10.864;2022-12-18T00:39:11;-6.90;99.90
14962;DHT22;56489;53.166;10.864;2022-12-18T00:41:38;-6.90;99.90
14962;DHT22;56489;53.166;10.864;2022-12-18T00:44:24;-6.80;99.90
14962;DHT22;56489;53.166;10.864;2022-12-18T00:46:50;-6.80;99.90
14962;DHT22;56489;53.166;10.864;2022-12-18T00:49:18;-6.80;99.90
14962;DHT22;56489;53.166;10.864;2022-12-18T00:51:45;-6.80;99.90
14962;DHT22;56489;53.166;10.864;2022-12-18T00:54:13;-6.90;99.90
14962;DHT22;56489;53.166;10.864;2022-12-18T00:56:39;-6.90;99.90
14962;DHT22;56489;53.166;10.864;2022-12-18T00:59:14;-7.00;99.90
14962;DHT22;56489;53.166;10.864;2022-12-18T01:01:41;-7.00;99.90
14962;DHT22;56489;53.166;10.864;2022-12-18T01:04:08;-7.00;99.90
14962;DHT22;56489;53.166;10.864;2022-12-18T01:06:35;-7.10;99.90
14962;DHT22;56489;53.166;10.864;2022-12-18T01:09:02;-7.10;99.90
14962;DHT22;56489;53.166;10.864;2022-12-18T01:11:29;-7.10;99.90
14962;DHT22;56489;53.166;10.864;2022-12-18T01:13:56;-7.10;99.90
14962;DHT22;56489;53.166;10.864;2022-12-18T01:16:22;-7.20;99.90
14962;DHT22;56489;53.166;10.864;2022-12-18T01:18:52;-7.20;99.90
14962;DHT22;56489;53.166;10.864;2022-12-18T01:21:20;-7.20;99.90
14962;DHT22;56489;53.166;10.864;2022-12-18T01:23:50;-7.20;99.90
14962;DHT22;56489;53.166;10.864;2022-12-18T01:26:18;-7.20;99.90
14962;DHT22;56489;53.166;10.864;2022-12-18T01:28:45;-5.30;99.90
14962;DHT22;56489;53.166;10.864;2022-12-18T01:31:16;-7.40;99.90
14962;DHT22;56489;53.166;10.864;2022-12-18T01:33:43;-7.40;99.90
14962;DHT22;56489;53.166;10.864;2022-12-18T01:38:43;-7.40;99.90
14962;DHT22;56489;53.166;10.864;2022-12-18T01:41:10;-7.40;99.90
14962;DHT22;56489;53.166;10.864;2022-12-18T01:43:41;-7.40;99.90
14962;DHT22;56489;53.166;10.864;2022-12-18T01:46:08;-7.40;99.90
14962;DHT22;56489;53.166;10.864;2022-12-18T01:48:35;-7.30;99.90
14962;DHT22;56489;53.166;10.864;2022-12-18T01:51:02;-7.40;99.90
14962;DHT22;56489;53.166;10.864;2022-12-18T01:53:31;-7.40;99.90
14962;DHT22;56489;53.166;10.864;2022-12-18T01:55:58;-7.40;99.90
14962;DHT22;56489;53.166;10.864;2022-12-18T01:58:30;-7.50;99.90
14962;DHT22;56489;53.166;10.864;2022-12-18T02:00:59;-7.40;99.90
14962;DHT22;56489;53.166;10.864;2022-12-18T02:03:26;-7.40;99.90
14962;DHT22;56489;53.166;10.864;2022-12-18T02:11:10;-7.50;99.90
14962;DHT22;56489;53.166;10.864;2022-12-18T02:17:05;-7.50;99.90
14962;DHT22;56489;53.166;10.864;2022-12-18T02:19:15;-7.60;99.90
14962;DHT22;56489;53.166;10.864;2022-12-18T02:21:45;-7.60;99.90
14962;DHT22;56489;53.166;10.864;2022-12-18T02:26:43;-7.50;99.90
14962;DHT22;56489;53.166;10.864;2022-12-18T02:29:13;-7.50;99.90
14962;DHT22;56489;53.166;10.864;2022-12-18T02:31:43;-7.40;99.90
14962;DHT22;56489;53.166;10.864;2022-12-18T02:34:11;-7.30;99.90
14962;DHT22;56489;53.166;10.864;2022-12-18T02:36:39;-7.20;99.90
14962;DHT22;56489;53.166;10.864;2022-12-18T02:39:08;-7.20;99.90
14962;DHT22;56489;53.166;10.864;2022-12-18T02:41:35;-7.20;99.90
14962;DHT22;56489;53.166;10.864;2022-12-18T02:44:06;-7.20;99.90
14962;DHT22;56489;53.166;10.864;2022-12-18T02:46:38;-7.20;99.90
14962;DHT22;56489;53.166;10.864;2022-12-18T02:51:52;-7.30;99.90
14962;DHT22;56489;53.166;10.864;2022-12-18T02:54:22;-7.30;99.90
14962;DHT22;56489;53.166;10.864;2022-12-18T02:56:51;-7.20;99.90
14962;DHT22;56489;53.166;10.864;2022-12-18T02:59:34;-7.20;99.90
14962;DHT22;56489;53.166;10.864;2022-12-18T03:02:06;-7.30;99.90
14962;DHT22;56489;53.166;10.864;2022-12-18T03:04:42;-7.30;99.90
14962;DHT22;56489;53.166;10.864;2022-12-18T03:07:11;-7.30;99.90
14962;DHT22;56489;53.166;10.864;2022-12-18T03:09:42;-7.30;99.90
14962;DHT22;56489;53.166;10.864;2022-12-18T03:12:26;-7.30;99.90
14962;DHT22;56489;53.166;10.864;2022-12-18T03:15:02;-7.40;99.90
14962;DHT22;56489;53.166;10.864;2022-12-18T03:17:31;-7.40;99.90
14962;DHT22;56489;53.166;10.864;2022-12-18T03:19:59;-7.50;99.90
14962;DHT22;56489;53.166;10.864;2022-12-18T03:22:32;-7.50;99.90
14962;DHT22;56489;53.166;10.864;2022-12-18T03:25:00;-7.60;99.90
14962;DHT22;56489;53.166;10.864;2022-12-18T03:27:28;-7.60;99.90
14962;DHT22;56489;53.166;10.864;2022-12-18T03:30:03;-7.60;99.90
14962;DHT22;56489;53.166;10.864;2022-12-18T03:32:46;-7.60;99.90
14962;DHT22;56489;53.166;10.864;2022-12-18T03:35:14;-7.60;99.90
14962;DHT22;56489;53.166;10.864;2022-12-18T03:37:44;-7.70;99.90
14962;DHT22;56489;53.166;10.864;2022-12-18T03:40:11;-7.70;99.90
14962;DHT22;56489;53.166;10.864;2022-12-18T03:42:46;-7.70;99.90
14962;DHT22;56489;53.166;10.864;2022-12-18T03:45:18;-7.70;99.90
14962;DHT22;56489;53.166;10.864;2022-12-18T03:53:10;-7.80;99.90
14962;DHT22;56489;53.166;10.864;2022-12-18T03:55:41;-7.90;99.90
14962;DHT22;56489;53.166;10.864;2022-12-18T03:58:08;-7.90;99.90
14962;DHT22;56489;53.166;10.864;2022-12-18T04:00:37;-7.90;99.90
14962;DHT22;56489;53.166;10.864;2022-12-18T04:03:05;-7.90;99.90
14962;DHT22;56489;53.166;10.864;2022-12-18T04:05:35;-8.00;99.90
14962;DHT22;56489;53.166;10.864;2022-12-18T04:08:03;-7.90;99.90
14962;DHT22;56489;53.166;10.864;2022-12-18T04:10:31;-8.00;99.90
14962;DHT22;56489;53.166;10.864;2022-12-18T04:12:58;-8.00;99.90
14962;DHT22;56489;53.166;10.864;2022-12-18T04:15:24;-8.00;99.90
14962;DHT22;56489;53.166;10.864;2022-12-18T04:17:51;-8.00;99.90
14962;DHT22;56489;53.166;10.864;2022-12-18T04:20:18;-8.00;99.90
14962;DHT22;56489;53.166;10.864;2022-12-18T04:22:44;-8.00;99.90
14962;DHT22;56489;53.166;10.864;2022-12-18T04:25:11;-8.00;99.90
14962;DHT22;56489;53.166;10.864;2022-12-18T04:27:38;-8.00;99.90
14962;DHT22;56489;53.166;10.864;2022-12-18T04:30:05;-8.00;99.90
14962;DHT22;56489;53.166;10.864;2022-12-18T04:32:33;-8.10;99.90
14962;DHT22;56489;53.166;10.864;2022-12-18T04:34:59;-8.10;99.90
14962;DHT22;56489;53.166;10.864;2022-12-18T04:37:26;-8.10;99.90
14962;DHT22;56489;53.166;10.864;2022-12-18T04:39:53;-8.20;99.90
14962;DHT22;56489;53.166;10.864;2022-12-18T04:42:19;-8.20;99.90
14962;DHT22;56489;53.166;10.864;2022-12-18T04:44:46;-8.20;99.90
14962;DHT22;56489;53.166;10.864;2022-12-18T04:47:13;-8.10;99.90
14962;DHT22;56489;53.166;10.864;2022-12-18T04:49:39;-8.10;99.90
14962;DHT22;56489;53.166;10.864;2022-12-18T04:52:06;-8.10;99.90
14962;DHT22;56489;53.166;10.864;2022-12-18T04:54:33;-8.10;99.90
14962;DHT22;56489;53.166;10.864;2022-12-18T04:57:00;-8.10;99.90
14962;DHT22;56489;53.166;10.864;2022-12-18T04:59:26;-8.10;99.90
14962;DHT22;56489;53.166;10.864;2022-12-18T05:01:53;-8.10;99.90
14962;DHT22;56489;53.166;10.864;2022-12-18T05:04:20;-8.10;99.90
14962;DHT22;56489;53.166;10.864;2022-12-18T05:06:46;-8.10;99.90
14962;DHT22;56489;53.166;10.864;2022-12-18T05:09:14;-8.10;99.90
14962;DHT22;56489;53.166;10.864;2022-12-18T05:11:40;-8.10;99.90
14962;DHT22;56489;53.166;10.864;2022-12-18T05:14:07;-8.10;99.90
14962;DHT22;56489;53.166;10.864;2022-12-18T05:16:33;-8.00;99.90
14962;DHT22;56489;53.166;10.864;2022-12-18T05:19:00;-8.00;99.90
14962;DHT22;56489;53.166;10.864;2022-12-18T05:21:27;-8.00;99.90
14962;DHT22;56489;53.166;10.864;2022-12-18T05:23:54;-8.00;99.90
14962;DHT22;56489;53.166;10.864;2022-12-18T05:26:20;-7.90;99.90
14962;DHT22;56489;53.166;10.864;2022-12-18T05:28:47;-7.90;99.90
14962;DHT22;56489;53.166;10.864;2022-12-18T05:31:14;-7.90;99.90
14962;DHT22;56489;53.166;10.864;2022-12-18T05:33:41;-7.90;99.90
14962;DHT22;56489;53.166;10.864;2022-12-18T05:36:09;-8.00;99.90
14962;DHT22;56489;53.166;10.864;2022-12-18T05:38:36;-8.00;99.90
14962;DHT22;56489;53.166;10.864;2022-12-18T05:41:03;-8.00;99.90
14962;DHT22;56489;53.166;10.864;2022-12-18T05:43:30;-8.00;99.90
14962;DHT22;56489;53.166;10.864;2022-12-18T05:45:57;-8.00;99.90
14962;DHT22;56489;53.166;10.864;2022-12-18T05:48:24;-8.10;99.90
14962;DHT22;56489;53.166;10.864;2022-12-18T05:50:51;-8.10;99.90
14962;DHT22;56489;53.166;10.864;2022-12-18T05:53:18;-8.20;99.90
14962;DHT22;56489;53.166;10.864;2022-12-18T05:55:46;-8.20;99.90
14962;DHT22;56489;53.166;10.864;2022-12-18T05:58:13;-8.20;99.90
14962;DHT22;56489;53.166;10.864;2022-12-18T06:00:41;-8.20;99.90
14962;DHT22;56489;53.166;10.864;2022-12-18T06:03:09;-8.20;99.90
14962;DHT22;56489;53.166;10.864;2022-12-18T06:05:41;-8.10;99.90
14962;DHT22;56489;53.166;10.864;2022-12-18T06:08:08;-8.10;99.90
14962;DHT22;56489;53.166;10.864;2022-12-18T06:10:35;-8.10;99.90
14962;DHT22;56489;53.166;10.864;2022-12-18T06:13:02;-8.10;99.90
14962;DHT22;56489;53.166;10.864;2022-12-18T06:15:29;-8.20;99.90
14962;DHT22;56489;53.166;10.864;2022-12-18T06:17:56;-8.20;99.90
14962;DHT22;56489;53.166;10.864;2022-12-18T06:20:23;-8.20;99.90
14962;DHT22;56489;53.166;10.864;2022-12-18T06:22:54;-8.30;99.90
14962;DHT22;56489;53.166;10.864;2022-12-18T06:25:21;-8.30;99.90
14962;DHT22;56489;53.166;10.864;2022-12-18T06:27:47;-8.30;99.90
14962;DHT22;56489;53.166;10.864;2022-12-18T06:30:14;-8.30;99.90
14962;DHT22;56489;53.166;10.864;2022-12-18T06:32:41;-8.30;99.90
14962;DHT22;56489;53.166;10.864;2022-12-18T06:35:08;-8.30;99.90
14962;DHT22;56489;53.166;10.864;2022-12-18T06:37:35;-8.30;99.90
14962;DHT22;56489;53.166;10.864;2022-12-18T06:40:01;-8.30;99.90
14962;DHT22;56489;53.166;10.864;2022-12-18T06:42:28;-8.30;99.90
14962;DHT22;56489;53.166;10.864;2022-12-18T06:44:55;-8.30;99.90
14962;DHT22;56489;53.166;10.864;2022-12-18T06:47:21;-8.30;99.90
14962;DHT22;56489;53.166;10.864;2022-12-18T06:49:48;-8.30;99.90
14962;DHT22;56489;53.166;10.864;2022-12-18T06:52:15;-8.30;99.90
14962;DHT22;56489;53.166;10.864;2022-12-18T06:54:41;-8.30;99.90
14962;DHT22;56489;53.166;10.864;2022-12-18T06:57:08;-8.30;99.90
14962;DHT22;56489;53.166;10.864;2022-12-18T06:59:35;-8.30;99.90
14962;DHT22;56489;53.166;10.864;2022-12-18T07:02:02;-8.30;99.90
14962;DHT22;56489;53.166;10.864;2022-12-18T07:04:29;-8.30;99.90
14962;DHT22;56489;53.166;10.864;2022-12-18T07:06:57;-8.30;99.90
14962;DHT22;56489;53.166;10.864;2022-12-18T07:09:23;-8.30;99.90
14962;DHT22;56489;53.166;10.864;2022-12-18T07:11:51;-8.30;99.90
14962;DHT22;56489;53.166;10.864;2022-12-18T07:14:18;-8.30;99.90
14962;DHT22;56489;53.166;10.864;2022-12-18T07:16:45;-8.30;99.90
14962;DHT22;56489;53.166;10.864;2022-12-18T07:19:11;-8.30;99.90
14962;DHT22;56489;53.166;10.864;2022-12-18T07:21:38;-8.30;99.90
14962;DHT22;56489;53.166;10.864;2022-12-18T07:24:05;-8.30;99.90
14962;DHT22;56489;53.166;10.864;2022-12-18T07:26:32;-8.30;99.90
14962;DHT22;56489;53.166;10.864;2022-12-18T07:28:59;-8.30;99.90
14962;DHT22;56489;53.166;10.864;2022-12-18T07:31:26;-8.30;99.90
14962;DHT22;56489;53.166;10.864;2022-12-18T07:33:54;-8.30;99.90
14962;DHT22;56489;53.166;10.864;2022-12-18T07:36:20;-8.30;99.90
14962;DHT22;56489;53.166;10.864;2022-12-18T07:38:47;-8.30;99.90
14962;DHT22;56489;53.166;10.864;2022-12-18T07:41:15;-8.30;99.90
14962;DHT22;56489;53.166;10.864;2022-12-18T07:43:42;-8.20;99.90
14962;DHT22;56489;53.166;10.864;2022-12-18T07:46:09;-8.20;99.90
14962;DHT22;56489;53.166;10.864;2022-12-18T07:48:39;-8.20;99.90
14962;DHT22;56489;53.166;10.864;2022-12-18T07:51:07;-8.20;99.90
14962;DHT22;56489;53.166;10.864;2022-12-18T07:53:34;-8.10;99.90
14962;DHT22;56489;53.166;10.864;2022-12-18T07:56:07;-8.10;99.90
14962;DHT22;56489;53.166;10.864;2022-12-18T07:58:54;-8.00;99.90
14962;DHT22;56489;53.166;10.864;2022-12-18T08:01:21;-8.00;99.90
14962;DHT22;56489;53.166;10.864;2022-12-18T08:03:48;-7.90;99.90
14962;DHT22;56489;53.166;10.864;2022-12-18T08:06:17;-7.90;99.90
14962;DHT22;56489;53.166;10.864;2022-12-18T08:08:44;-7.80;99.90
14962;DHT22;56489;53.166;10.864;2022-12-18T08:11:10;-7.80;99.90
14962;DHT22;56489;53.166;10.864;2022-12-18T08:13:37;-7.80;99.90
14962;DHT22;56489;53.166;10.864;2022-12-18T08:16:05;-7.70;99.90
14962;DHT22;56489;53.166;10.864;2022-12-18T08:18:33;-7.70;99.90
14962;DHT22;56489;53.166;10.864;2022-12-18T08:21:34;-7.60;99.90
14962;DHT22;56489;53.166;10.864;2022-12-18T08:23:56;-7.60;99.90
14962;DHT22;56489;53.166;10.864;2022-12-18T08:26:23;-7.60;99.90
14962;DHT22;56489;53.166;10.864;2022-12-18T08:28:50;-7.60;99.90
14962;DHT22;56489;53.166;10.864;2022-12-18T08:31:18;-7.50;99.90
14962;DHT22;56489;53.166;10.864;2022-12-18T08:33:45;-7.40;99.90
14962;DHT22;56489;53.166;10.864;2022-12-18T08:36:14;-7.30;99.90
14962;DHT22;56489;53.166;10.864;2022-12-18T08:38:40;-7.30;99.90
14962;DHT22;56489;53.166;10.864;2022-12-18T08:41:08;-7.30;99.90
14962;DHT22;56489;53.166;10.864;2022-12-18T08:43:35;-7.20;99.90
14962;DHT22;56489;53.166;10.864;2022-12-18T08:46:24;-7.10;99.90
14962;DHT22;56489;53.166;10.864;2022-12-18T08:48:51;-7.00;99.90
14962;DHT22;56489;53.166;10.864;2022-12-18T08:51:18;-7.00;99.90
14962;DHT22;56489;53.166;10.864;2022-12-18T08:53:46;-6.90;99.90
14962;DHT22;56489;53.166;10.864;2022-12-18T08:56:13;-6.80;99.90
14962;DHT22;56489;53.166;10.864;2022-12-18T08:58:40;-6.60;99.90
14962;DHT22;56489;53.166;10.864;2022-12-18T09:01:08;-6.60;99.90
14962;DHT22;56489;53.166;10.864;2022-12-18T09:03:38;-6.50;99.90
14962;DHT22;56489;53.166;10.864;2022-12-18T09:06:06;-6.40;99.90
14962;DHT22;56489;53.166;10.864;2022-12-18T09:08:33;-6.30;99.90
14962;DHT22;56489;53.166;10.864;2022-12-18T09:11:00;-6.20;99.90
14962;DHT22;56489;53.166;10.864;2022-12-18T09:13:27;-6.10;99.90
14962;DHT22;56489;53.166;10.864;2022-12-18T09:15:54;-6.00;99.90
14962;DHT22;56489;53.166;10.864;2022-12-18T09:18:21;-5.90;99.90
14962;DHT22;56489;53.166;10.864;2022-12-18T09:20:48;-5.90;99.90
14962;DHT22;56489;53.166;10.864;2022-12-18T09:23:16;-5.70;99.90
14962;DHT22;56489;53.166;10.864;2022-12-18T09:25:42;-5.70;99.90
14962;DHT22;56489;53.166;10.864;2022-12-18T09:28:13;-5.60;99.90
14962;DHT22;56489;53.166;10.864;2022-12-18T09:30:41;-5.50;99.90
14962;DHT22;56489;53.166;10.864;2022-12-18T09:33:08;-5.40;99.90
14962;DHT22;56489;53.166;10.864;2022-12-18T09:35:36;-5.30;99.90
14962;DHT22;56489;53.166;10.864;2022-12-18T09:38:03;-5.30;99.90
14962;DHT22;56489;53.166;10.864;2022-12-18T09:40:35;-5.20;99.90
14962;DHT22;56489;53.166;10.864;2022-12-18T09:43:03;-5.10;99.90
14962;DHT22;56489;53.166;10.864;2022-12-18T09:45:38;-5.10;99.90
14962;DHT22;56489;53.166;10.864;2022-12-18T09:48:08;-5.00;99.90
14962;DHT22;56489;53.166;10.864;2022-12-18T09:50:37;-5.00;99.90
14962;DHT22;56489;53.166;10.864;2022-12-18T09:53:12;-4.90;99.90
14962;DHT22;56489;53.166;10.864;2022-12-18T09:55:42;-4.90;99.90
14962;DHT22;56489;53.166;10.864;2022-12-18T10:00:36;-4.80;99.90
14962;DHT22;56489;53.166;10.864;2022-12-18T10:03:03;-4.10;99.90
14962;DHT22;56489;53.166;10.864;2022-12-18T10:05:43;-4.70;99.90
14962;DHT22;56489;53.166;10.864;2022-12-18T10:08:13;-4.60;99.90
14962;DHT22;56489;53.166;10.864;2022-12-18T10:10:46;-4.60;99.90
14962;DHT22;56489;53.166;10.864;2022-12-18T10:13:21;-4.50;99.90
14962;DHT22;56489;53.166;10.864;2022-12-18T10:16:03;-4.50;99.90
14962;DHT22;56489;53.166;10.864;2022-12-18T10:18:50;-4.40;99.90
14962;DHT22;56489;53.166;10.864;2022-12-18T10:21:25;-4.40;99.90
14962;DHT22;56489;53.166;10.864;2022-12-18T10:26:24;-4.30;99.90
14962;DHT22;56489;53.166;10.864;2022-12-18T10:28:51;-4.30;99.90
14962;DHT22;56489;53.166;10.864;2022-12-18T10:31:21;-4.30;99.90
14962;DHT22;56489;53.166;10.864;2022-12-18T10:33:50;-4.20;99.90
14962;DHT22;56489;53.166;10.864;2022-12-18T10:36:17;-4.10;99.90
14962;DHT22;56489;53.166;10.864;2022-12-18T10:38:44;-4.00;99.90
14962;DHT22;56489;53.166;10.864;2022-12-18T10:41:29;-4.00;99.90
14962;DHT22;56489;53.166;10.864;2022-12-18T10:46:54;-3.90;99.90
14962;DHT22;56489;53.166;10.864;2022-12-18T10:49:26;-3.90;99.90
14962;DHT22;56489;53.166;10.864;2022-12-18T10:54:33;-3.90;99.90
14962;DHT22;56489;53.166;10.864;2022-12-18T10:57:14;-3.90;99.90
14962;DHT22;56489;53.166;10.864;2022-12-18T10:59:49;-3.90;99.90
14962;DHT22;56489;53.166;10.864;2022-12-18T11:02:35;-3.80;99.90
14962;DHT22;56489;53.166;10.864;2022-12-18T11:05:22;-3.90;99.90
14962;DHT22;56489;53.166;10.864;2022-12-18T11:07:49;-3.90;99.90
14962;DHT22;56489;53.166;10.864;2022-12-18T11:10:18;-3.90;99.90
14962;DHT22;56489;53.166;10.864;2022-12-18T11:12:45;-3.80;99.90
14962;DHT22;56489;53.166;10.864;2022-12-18T11:15:30;-3.80;99.90
14962;DHT22;56489;53.166;10.864;2022-12-18T11:17:57;-3.80;99.90
14962;DHT22;56489;53.166;10.864;2022-12-18T11:20:32;-3.80;99.90
14962;DHT22;56489;53.166;10.864;2022-12-18T11:23:05;-3.70;99.90
14962;DHT22;56489;53.166;10.864;2022-12-18T11:25:37;-3.70;99.90
14962;DHT22;56489;53.166;10.864;2022-12-18T11:28:05;-3.60;99.90
14962;DHT22;56489;53.166;10.864;2022-12-18T11:33:41;-3.50;99.90
14962;DHT22;56489;53.166;10.864;2022-12-18T11:36:31;-3.40;99.90
14962;DHT22;56489;53.166;10.864;2022-12-18T11:38:59;-3.30;99.90
14962;DHT22;56489;53.166;10.864;2022-12-18T11:41:29;-3.20;99.90
14962;DHT22;56489;53.166;10.864;2022-12-18T11:44:16;-3.20;99.90
14962;DHT22;56489;53.166;10.864;2022-12-18T11:46:47;-3.30;99.90
14962;DHT22;56489;53.166;10.864;2022-12-18T11:49:17;-3.30;99.90
14962;DHT22;56489;53.166;10.864;2022-12-18T11:51:54;-3.30;99.90
14962;DHT22;56489;53.166;10.864;2022-12-18T11:54:22;-3.30;99.90
14962;DHT22;56489;53.166;10.864;2022-12-18T12:01:56;-3.30;99.90
14962;DHT22;56489;53.166;10.864;2022-12-18T12:07:15;-3.30;99.90
14962;DHT22;56489;53.166;10.864;2022-12-18T12:09:51;-3.30;99.90
14962;DHT22;56489;53.166;10.864;2022-12-18T12:15:33;-3.20;99.90
14962;DHT22;56489;53.166;10.864;2022-12-18T12:20:55;-3.20;99.90
14962;DHT22;56489;53.166;10.864;2022-12-18T12:23:26;-3.20;99.90
14962;DHT22;56489;53.166;10.864;2022-12-18T12:28:31;-3.10;99.90
14962;DHT22;56489;53.166;10.864;2022-12-18T12:36:12;-3.20;99.90
14962;DHT22;56489;53.166;10.864;2022-12-18T12:38:48;-3.20;99.90
14962;DHT22;56489;53.166;10.864;2022-12-18T12:41:19;-3.20;99.90
14962;DHT22;56489;53.166;10.864;2022-12-18T12:44:07;-3.20;99.90
14962;DHT22;56489;53.166;10.864;2022-12-18T12:46:36;-3.20;99.90
14962;DHT22;56489;53.166;10.864;2022-12-18T12:49:09;-3.20;99.90
14962;DHT22;56489;53.166;10.864;2022-12-18T12:51:39;-3.20;99.90
14962;DHT22;56489;53.166;10.864;2022-12-18T12:54:11;-3.10;99.90
14962;DHT22;56489;53.166;10.864;2022-12-18T12:56:43;-3.20;99.90
14962;DHT22;56489;53.166;10.864;2022-12-18T12:59:21;-3.20;99.90
14962;DHT22;56489;53.166;10.864;2022-12-18T13:02:06;-3.10;99.90
14962;DHT22;56489;53.166;10.864;2022-12-18T13:04:45;-3.10;99.90
14962;DHT22;56489;53.166;10.864;2022-12-18T13:07:26;-3.00;99.90
14962;DHT22;56489;53.166;10.864;2022-12-18T13:15:36;-3.00;99.90
14962;DHT22;56489;53.166;10.864;2022-12-18T13:18:10;-3.00;99.90
14962;DHT22;56489;53.166;10.864;2022-12-18T13:20:42;-3.00;99.90
14962;DHT22;56489;53.166;10.864;2022-12-18T13:34:18;-3.00;99.90
14962;DHT22;56489;53.166;10.864;2022-12-18T13:36:54;-3.00;99.90
14962;DHT22;56489;53.166;10.864;2022-12-18T13:39:23;-3.00;99.90
14962;DHT22;56489;53.166;10.864;2022-12-18T13:44:57;-3.00;99.90
14962;DHT22;56489;53.166;10.864;2022-12-18T13:47:25;-3.10;99.90
14962;DHT22;56489;53.166;10.864;2022-12-18T13:49:52;-3.10;99.90
14962;DHT22;56489;53.166;10.864;2022-12-18T13:52:20;-3.20;99.90
14962;DHT22;56489;53.166;10.864;2022-12-18T13:54:55;-3.20;99.90
14962;DHT22;56489;53.166;10.864;2022-12-18T13:57:25;-3.20;99.90
14962;DHT22;56489;53.166;10.864;2022-12-18T13:59:52;-3.20;99.90
14962;DHT22;56489;53.166;10.864;2022-12-18T14:02:26;-3.30;99.90
14962;DHT22;56489;53.166;10.864;2022-12-18T14:04:53;-3.40;99.90
14962;DHT22;56489;53.166;10.864;2022-12-18T14:07:27;-3.50;99.90
14962;DHT22;56489;53.166;10.864;2022-12-18T14:10:03;-3.60;99.90
14962;DHT22;56489;53.166;10.864;2022-12-18T14:12:50;-3.60;99.90
14962;DHT22;56489;53.166;10.864;2022-12-18T14:17:54;-3.80;99.90
14962;DHT22;56489;53.166;10.864;2022-12-18T14:20:21;-3.80;99.90
14962;DHT22;56489;53.166;10.864;2022-12-18T14:22:49;-3.90;99.90
14962;DHT22;56489;53.166;10.864;2022-12-18T14:25:21;-4.00;99.90
14962;DHT22;56489;53.166;10.864;2022-12-18T14:27:52;-4.00;99.90
14962;DHT22;56489;53.166;10.864;2022-12-18T14:32:59;-4.10;99.90
14962;DHT22;56489;53.166;10.864;2022-12-18T14:35:26;-4.20;99.90
14962;DHT22;56489;53.166;10.864;2022-12-18T14:37:53;-4.20;99.90
14962;DHT22;56489;53.166;10.864;2022-12-18T14:40:20;-4.20;99.90
14962;DHT22;56489;53.166;10.864;2022-12-18T14:42:47;-4.20;99.90
14962;DHT22;56489;53.166;10.864;2022-12-18T14:45:35;-4.20;99.90
14962;DHT22;56489;53.166;10.864;2022-12-18T14:48:14;-4.20;99.90
14962;DHT22;56489;53.166;10.864;2022-12-18T14:51:02;-4.30;99.90
14962;DHT22;56489;53.166;10.864;2022-12-18T14:55:59;-4.30;99.90
14962;DHT22;56489;53.166;10.864;2022-12-18T14:58:26;-4.30;99.90
14962;DHT22;56489;53.166;10.864;2022-12-18T15:00:54;-4.30;99.90
14962;DHT22;56489;53.166;10.864;2022-12-18T15:03:21;-4.30;99.90
14962;DHT22;56489;53.166;10.864;2022-12-18T15:05:49;-4.30;99.90
14962;DHT22;56489;53.166;10.864;2022-12-18T15:08:34;-4.30;99.90
14962;DHT22;56489;53.166;10.864;2022-12-18T15:11:01;-4.30;99.90
14962;DHT22;56489;53.166;10.864;2022-12-18T15:13:32;-4.30;99.90
14962;DHT22;56489;53.166;10.864;2022-12-18T15:16:00;-4.30;99.90
14962;DHT22;56489;53.166;10.864;2022-12-18T15:18:30;-4.30;99.90
14962;DHT22;56489;53.166;10.864;2022-12-18T15:20:59;-4.30;99.90
14962;DHT22;56489;53.166;10.864;2022-12-18T15:23:32;-4.20;99.90
14962;DHT22;56489;53.166;10.864;2022-12-18T15:26:05;-4.40;99.90
14962;DHT22;56489;53.166;10.864;2022-12-18T15:28:57;-4.20;99.90
14962;DHT22;56489;53.166;10.864;2022-12-18T15:36:18;-4.10;99.90
14962;DHT22;56489;53.166;10.864;2022-12-18T15:38:52;-4.20;99.90
14962;DHT22;56489;53.166;10.864;2022-12-18T15:41:21;-4.20;99.90
14962;DHT22;56489;53.166;10.864;2022-12-18T15:43:51;-4.20;99.90
14962;DHT22;56489;53.166;10.864;2022-12-18T15:46:24;-4.20;99.90
14962;DHT22;56489;53.166;10.864;2022-12-18T15:48:52;-4.20;99.90
14962;DHT22;56489;53.166;10.864;2022-12-18T15:51:31;-4.20;99.90
14962;DHT22;56489;53.166;10.864;2022-12-18T15:53:59;-4.20;99.90
14962;DHT22;56489;53.166;10.864;2022-12-18T15:56:27;-4.10;99.90
14962;DHT22;56489;53.166;10.864;2022-12-18T15:59:16;-4.10;99.90
14962;DHT22;56489;53.166;10.864;2022-12-18T16:01:44;-4.20;99.90
14962;DHT22;56489;53.166;10.864;2022-12-18T16:04:11;-4.20;99.90
14962;DHT22;56489;53.166;10.864;2022-12-18T16:06:39;-4.10;99.90
14962;DHT22;56489;53.166;10.864;2022-12-18T16:09:25;-4.10;99.90
14962;DHT22;56489;53.166;10.864;2022-12-18T16:11:52;-3.60;99.90
14962;DHT22;56489;53.166;10.864;2022-12-18T16:14:23;-4.10;99.90
14962;DHT22;56489;53.166;10.864;2022-12-18T16:16:51;-4.00;99.90
14962;DHT22;56489;53.166;10.864;2022-12-18T16:19:18;-4.00;99.90
14962;DHT22;56489;53.166;10.864;2022-12-18T16:21:45;-4.00;99.90
14962;DHT22;56489;53.166;10.864;2022-12-18T16:24:19;-4.00;99.90
14962;DHT22;56489;53.166;10.864;2022-12-18T16:26:48;-3.90;99.90
14962;DHT22;56489;53.166;10.864;2022-12-18T16:29:15;-3.90;99.90
14962;DHT22;56489;53.166;10.864;2022-12-18T16:31:42;-3.90;99.90
14962;DHT22;56489;53.166;10.864;2022-12-18T16:36:38;-3.80;99.90
14962;DHT22;56489;53.166;10.864;2022-12-18T16:39:05;-3.80;99.90
14962;DHT22;56489;53.166;10.864;2022-12-18T16:41:32;-3.80;99.90
14962;DHT22;56489;53.166;10.864;2022-12-18T16:43:59;-3.80;99.90
14962;DHT22;56489;53.166;10.864;2022-12-18T16:46:26;-3.80;99.90
14962;DHT22;56489;53.166;10.864;2022-12-18T16:48:53;-3.80;99.90
14962;DHT22;56489;53.166;10.864;2022-12-18T16:51:19;-3.80;99.90
14962;DHT22;56489;53.166;10.864;2022-12-18T16:53:46;-3.80;99.90
14962;DHT22;56489;53.166;10.864;2022-12-18T16:56:13;-3.80;99.90
14962;DHT22;56489;53.166;10.864;2022-12-18T16:58:39;-3.80;99.90
14962;DHT22;56489;53.166;10.864;2022-12-18T17:01:08;-3.70;99.90
14962;DHT22;56489;53.166;10.864;2022-12-18T17:03:35;-3.80;99.90